Airfield :
LOGIN :

Register | Disclaimer

   EN    FR    IT 

 










Legend :    VFR   Marginal VFR   IFR   Intensive IFR   Very Intensive IFR
Visi :
Ceiling :
>= 8 km
>= 3000ft
5 to 8 km
1000 to 3000 ft
1500m to 5 km
500 to 1000 ft
800 to 1500m
200 to 500 ft
< 800m
< 200 ft
Symbols :   Thunderstorms  Fog  Heavy snow  Heavy precipitations  Wind > 20 kt
SIGMETs :     Misc.  Thunderstorms  Icing  Turbulence  Mountain Waves  Volcanic Ashes






- Airport Elevation : 844 ft
- IATA code : OSR


LKMT - Ostrava-Mosnov

CURRENT METAR :
  • 051900Z 05006KT 9999 SCT032 M06/M10 Q1037 NOSIG

EXPIRED METARs :
  • 051830Z 01006KT 9999 FEW032 M07/M11 Q1037 NOSIG
  • 051800Z 01006KT 9999 FEW031 M06/M11 Q1037 NOSIG
  • 051730Z 01006KT 9999 BKN034 M05/M09 Q1037 NOSIG
  • 051700Z 02009KT 9999 BKN035 M04/M10 Q1037 NOSIG
  • 051630Z 03008KT 9999 SCT036 M05/M09 Q1036 NOSIG

TAF TAF LKMT
Valid from the 05 at 18:00 until the 06 at 18:00 UTC


051700Z 0518/0618 03008KT 9999 SCT035



MET'MAP, your aeronautical weather chart ! - Copyright ORBIFLY December 2007 - Disclaimer

ORBIFLY MET'MAP TEAM :

Programming & Development : Alexandra Zaïnal
Original concept : Baudouin d'Aumeries
Technical & hardware support : Manuel Goepfert
Assistance : Marc-Olivier Méhu




SOURCES & CREDITS :

   NOAA